createdAt,value
2022-11-08T00:01:36.714Z,5.42
2022-11-08T00:04:00.387Z,5.35
2022-11-08T00:06:41.751Z,5.30
2022-11-08T00:09:23.191Z,5.42
2022-11-08T00:12:04.605Z,5.46
2022-11-08T00:14:27.153Z,5.48
2022-11-08T00:16:49.695Z,5.44
2022-11-08T00:19:12.349Z,5.53
2022-11-08T00:21:34.899Z,5.57
2022-11-08T00:23:57.469Z,5.61
2022-11-08T00:26:20.176Z,5.63
2022-11-08T00:28:42.729Z,5.73
2022-11-08T00:31:08.326Z,5.85
2022-11-08T00:33:30.942Z,5.91
2022-11-08T00:35:53.514Z,5.91
2022-11-08T00:38:16.372Z,5.90
2022-11-08T00:40:39.110Z,5.90
2022-11-08T00:43:01.729Z,5.94
2022-11-08T00:45:24.330Z,6.02
2022-11-08T00:47:46.971Z,6.02
2022-11-08T00:50:09.735Z,6.06
2022-11-08T00:52:33.388Z,6.08
2022-11-08T00:54:55.820Z,6.08
2022-11-08T00:57:18.435Z,6.18
2022-11-08T00:59:40.988Z,6.09
2022-11-08T01:02:03.705Z,5.94
2022-11-08T01:04:26.455Z,5.94
2022-11-08T01:06:49.006Z,5.91
2022-11-08T01:09:11.926Z,5.99
2022-11-08T01:11:34.974Z,5.98
2022-11-08T01:13:59.561Z,5.97
2022-11-08T01:16:25.483Z,5.94
2022-11-08T01:18:49.811Z,5.97
2022-11-08T01:21:14.097Z,6.04
2022-11-08T01:23:36.922Z,5.98
2022-11-08T01:26:12.697Z,5.98
2022-11-08T01:28:35.965Z,5.85
2022-11-08T01:31:03.941Z,5.83
2022-11-08T01:33:26.991Z,5.67
2022-11-08T01:35:49.664Z,5.64
2022-11-08T01:38:12.384Z,5.57
2022-11-08T01:40:34.954Z,5.56
2022-11-08T01:42:57.527Z,5.57
2022-11-08T01:45:57.423Z,5.68
2022-11-08T01:48:21.232Z,5.63
2022-11-08T01:50:43.841Z,5.61
2022-11-08T01:53:06.770Z,5.60
2022-11-08T01:55:35.955Z,5.63
2022-11-08T01:58:10.871Z,5.51
2022-11-08T02:00:36.276Z,5.51
2022-11-08T02:03:01.725Z,5.61
2022-11-08T02:05:27.277Z,5.65
2022-11-08T02:07:49.777Z,5.68
2022-11-08T02:10:12.340Z,5.79
2022-11-08T02:12:35.197Z,5.81
2022-11-08T02:14:58.173Z,5.87
2022-11-08T02:17:20.876Z,5.87
2022-11-08T02:19:46.686Z,5.95
2022-11-08T02:22:54.296Z,5.87
2022-11-08T02:25:17.219Z,5.94
2022-11-08T02:27:39.645Z,5.97
2022-11-08T02:30:02.122Z,5.98
2022-11-08T02:32:25.548Z,6.06
2022-11-08T02:34:53.253Z,6.09
2022-11-08T02:37:18.633Z,6.15
2022-11-08T02:39:41.156Z,6.22
2022-11-08T02:42:03.891Z,6.19
2022-11-08T02:44:26.489Z,6.29
2022-11-08T02:46:49.042Z,6.34
2022-11-08T02:49:11.764Z,6.34
2022-11-08T02:51:34.291Z,6.36
2022-11-08T02:53:57.918Z,6.39
2022-11-08T02:56:20.476Z,6.40
2022-11-08T02:58:43.109Z,6.28
2022-11-08T03:01:06.237Z,6.30
2022-11-08T03:03:28.965Z,6.36
2022-11-08T03:05:51.543Z,6.36
2022-11-08T03:08:15.074Z,6.40
2022-11-08T03:10:37.787Z,6.39
2022-11-08T03:13:02.530Z,6.43
2022-11-08T03:15:25.525Z,6.53
2022-11-08T03:17:48.031Z,6.56
2022-11-08T03:20:11.168Z,6.57
2022-11-08T03:22:33.756Z,6.57
2022-11-08T03:24:56.366Z,6.56
2022-11-08T03:27:19.872Z,6.54
2022-11-08T03:29:42.618Z,6.56
2022-11-08T03:32:05.088Z,6.53
2022-11-08T03:34:27.552Z,6.44
2022-11-08T03:36:50.072Z,6.53
2022-11-08T03:39:12.528Z,6.46
2022-11-08T03:41:35.167Z,6.54
2022-11-08T03:43:57.620Z,6.51
2022-11-08T03:46:20.091Z,6.54
2022-11-08T03:48:42.762Z,6.57
2022-11-08T03:51:05.524Z,6.56
2022-11-08T03:53:28.141Z,6.67
2022-11-08T03:55:50.880Z,6.74
2022-11-08T03:58:13.461Z,6.69
2022-11-08T04:00:36.013Z,6.58
2022-11-08T04:03:03.485Z,6.60
2022-11-08T04:05:26.180Z,6.37
2022-11-08T04:07:49.023Z,6.42
2022-11-08T04:10:12.636Z,6.33
2022-11-08T04:12:56.890Z,6.05
2022-11-08T04:15:22.677Z,6.16
2022-11-08T04:18:13.214Z,6.08
2022-11-08T04:21:12.341Z,6.04
2022-11-08T04:23:36.973Z,6.04
2022-11-08T04:26:01.587Z,6.18
2022-11-08T04:28:26.301Z,6.30
2022-11-08T04:30:53.296Z,6.50
2022-11-08T04:33:15.816Z,6.50
2022-11-08T04:35:38.420Z,6.54
2022-11-08T04:38:02.176Z,6.57
2022-11-08T04:40:24.694Z,6.61
2022-11-08T04:42:47.227Z,6.69
2022-11-08T04:45:09.644Z,6.76
2022-11-08T04:47:37.637Z,6.80
2022-11-08T04:50:01.970Z,6.49
2022-11-08T04:52:24.632Z,6.53
2022-11-08T04:54:47.746Z,6.58
2022-11-08T04:57:11.499Z,6.46
2022-11-08T04:59:34.098Z,6.32
2022-11-08T05:01:56.906Z,6.18
2022-11-08T05:04:19.538Z,6.34
2022-11-08T05:06:42.144Z,6.40
2022-11-08T05:09:04.716Z,6.40
2022-11-08T05:11:29.225Z,6.36
2022-11-08T05:13:52.739Z,6.49
2022-11-08T05:16:26.373Z,6.42
2022-11-08T05:18:49.838Z,6.36
2022-11-08T05:21:33.254Z,6.37
2022-11-08T05:23:55.841Z,6.54
2022-11-08T05:26:20.273Z,6.51
2022-11-08T05:28:43.056Z,6.49
2022-11-08T05:31:05.662Z,6.47
2022-11-08T05:33:28.222Z,6.53
2022-11-08T05:35:51.499Z,6.54
2022-11-08T05:38:15.170Z,6.54
2022-11-08T05:40:37.884Z,6.28
2022-11-08T05:43:00.633Z,6.50
2022-11-08T05:45:23.264Z,6.56
2022-11-08T05:47:46.758Z,6.78
2022-11-08T05:50:09.418Z,6.44
2022-11-08T05:52:32.248Z,6.36
2022-11-08T05:54:54.798Z,6.53
2022-11-08T05:57:21.186Z,6.77
2022-11-08T05:59:44.680Z,6.67
2022-11-08T06:02:07.315Z,6.76
2022-11-08T06:04:30.022Z,6.64
2022-11-08T06:06:52.624Z,6.63
2022-11-08T06:09:15.206Z,6.50
2022-11-08T06:11:38.345Z,6.40
2022-11-08T06:14:00.934Z,6.44
2022-11-08T06:16:24.256Z,6.64
2022-11-08T06:18:47.818Z,6.70
2022-11-08T06:21:12.746Z,6.61
2022-11-08T06:23:35.285Z,6.56
2022-11-08T06:25:58.730Z,6.56
2022-11-08T06:28:21.834Z,6.60
2022-11-08T06:30:44.494Z,6.56
2022-11-08T06:33:07.355Z,6.58
2022-11-08T06:35:30.152Z,6.51
2022-11-08T06:37:56.477Z,6.50
2022-11-08T06:40:23.366Z,6.36
2022-11-08T06:42:46.083Z,6.36
2022-11-08T06:45:09.035Z,6.18
2022-11-08T06:47:31.781Z,6.56
2022-11-08T06:49:54.642Z,6.44
2022-11-08T06:52:17.202Z,6.43
2022-11-08T06:54:39.934Z,6.51
2022-11-08T06:57:02.948Z,6.61
2022-11-08T06:59:29.500Z,6.47
2022-11-08T07:01:52.254Z,6.40
2022-11-08T07:04:15.068Z,6.50
2022-11-08T07:06:37.710Z,6.46
2022-11-08T07:09:07.104Z,6.40
2022-11-08T07:11:31.903Z,6.67
2022-11-08T07:13:54.464Z,6.69
2022-11-08T07:16:17.111Z,6.51
2022-11-08T07:18:40.372Z,6.43
2022-11-08T07:21:03.691Z,6.57
2022-11-08T07:23:26.802Z,6.69
2022-11-08T07:25:49.444Z,6.74
2022-11-08T07:28:17.708Z,6.94
2022-11-08T07:30:40.620Z,6.90
2022-11-08T07:33:03.958Z,6.99
2022-11-08T07:35:27.867Z,6.78
2022-11-08T07:37:50.514Z,6.95
2022-11-08T07:40:13.771Z,7.12
2022-11-08T07:43:05.202Z,7.08
2022-11-08T07:45:22.809Z,7.15
2022-11-08T07:47:45.450Z,7.15
2022-11-08T07:50:08.942Z,6.83
2022-11-08T07:52:31.752Z,6.90
2022-11-08T07:54:54.594Z,6.99
2022-11-08T07:57:17.350Z,7.18
2022-11-08T07:59:40.427Z,7.35
2022-11-08T08:02:03.951Z,7.42
2022-11-08T08:04:29.972Z,7.55
2022-11-08T08:06:52.525Z,7.66
2022-11-08T08:09:15.170Z,7.77
2022-11-08T08:11:37.692Z,7.81
2022-11-08T08:14:00.354Z,8.08
2022-11-08T08:16:23.491Z,7.73
2022-11-08T08:18:46.158Z,7.77
2022-11-08T08:21:08.799Z,7.74
2022-11-08T08:23:31.847Z,7.95
2022-11-08T08:25:54.583Z,8.18
2022-11-08T08:28:17.557Z,8.11
2022-11-08T08:30:41.001Z,8.21
2022-11-08T08:33:36.598Z,8.16
2022-11-08T08:35:49.268Z,8.05
2022-11-08T08:38:13.607Z,7.97
2022-11-08T08:40:36.388Z,7.36
2022-11-08T08:43:03.621Z,7.53
2022-11-08T08:45:27.485Z,7.64
2022-11-08T08:47:57.728Z,7.93
2022-11-08T08:50:21.335Z,7.90
2022-11-08T08:52:43.990Z,8.31
2022-11-08T08:55:07.063Z,8.20
2022-11-08T08:57:29.774Z,7.97
2022-11-08T09:02:39.850Z,8.20
2022-11-08T09:05:05.403Z,8.24
2022-11-08T09:07:28.080Z,8.09
2022-11-08T09:09:50.733Z,8.29
2022-11-08T09:12:14.647Z,8.62
2022-11-08T09:14:37.401Z,8.53
2022-11-08T09:17:00.112Z,8.38
2022-11-08T09:19:22.912Z,8.35
2022-11-08T09:21:46.080Z,8.67
2022-11-08T09:24:08.668Z,8.92
2022-11-08T09:26:31.303Z,9.27
2022-11-08T09:29:20.934Z,9.35
2022-11-08T09:31:44.006Z,9.48
2022-11-08T09:34:06.722Z,8.62
2022-11-08T09:36:29.466Z,8.49
2022-11-08T09:38:52.122Z,8.26
2022-11-08T09:41:30.203Z,8.29
2022-11-08T09:44:01.467Z,8.43
2022-11-08T09:46:36.973Z,8.49
2022-11-08T09:49:02.985Z,8.79
2022-11-08T09:51:26.123Z,8.87
2022-11-08T09:53:58.995Z,9.04
2022-11-08T09:56:21.732Z,9.32
2022-11-08T09:59:03.427Z,9.15
2022-11-08T10:01:27.610Z,9.42
2022-11-08T10:03:55.347Z,9.60
2022-11-08T10:06:33.261Z,9.50
2022-11-08T10:09:05.312Z,9.67
2022-11-08T10:11:45.077Z,9.21
2022-11-08T10:14:41.806Z,9.14
2022-11-08T10:17:32.617Z,9.27
2022-11-08T10:20:07.248Z,9.08
2022-11-08T10:22:54.569Z,8.94
2022-11-08T10:25:54.791Z,9.29
2022-11-08T10:28:22.947Z,9.29
2022-11-08T10:30:49.669Z,9.18
2022-11-08T10:33:19.535Z,9.08
2022-11-08T10:36:01.775Z,9.15
2022-11-08T10:38:34.730Z,8.97
2022-11-08T10:40:57.400Z,9.05
2022-11-08T10:43:29.203Z,9.01
2022-11-08T10:45:52.233Z,9.39
2022-11-08T10:48:15.941Z,9.49
2022-11-08T10:50:48.345Z,9.22
2022-11-08T10:53:20.547Z,9.31
2022-11-08T10:55:49.371Z,9.39
2022-11-08T10:58:31.819Z,9.55
2022-11-08T11:01:17.106Z,9.40
2022-11-08T11:03:40.296Z,9.56
2022-11-08T11:06:05.489Z,9.53
2022-11-08T11:08:28.923Z,9.63
2022-11-08T11:10:51.953Z,9.87
2022-11-08T11:15:58.673Z,10.21
2022-11-08T11:18:49.241Z,10.17
2022-11-08T11:21:23.292Z,10.32
2022-11-08T11:24:05.822Z,10.44
2022-11-08T11:26:43.131Z,10.42
2022-11-08T11:29:06.092Z,10.21
2022-11-08T11:31:29.062Z,10.13
2022-11-08T11:33:51.637Z,10.25
2022-11-08T11:36:20.430Z,10.30
2022-11-08T11:39:00.448Z,10.04
2022-11-08T11:41:42.423Z,10.17
2022-11-08T11:44:23.397Z,10.35
2022-11-08T11:47:15.142Z,10.49
2022-11-08T11:49:39.759Z,10.44
2022-11-08T11:52:02.238Z,10.41
2022-11-08T11:54:30.289Z,10.65
2022-11-08T11:56:52.833Z,10.66
2022-11-08T11:59:24.173Z,10.81
2022-11-08T12:02:13.954Z,10.80
2022-11-08T12:05:13.220Z,10.79
2022-11-08T12:07:58.348Z,11.00
2022-11-08T12:10:47.426Z,11.14
2022-11-08T12:13:23.157Z,11.00
2022-11-08T12:15:57.383Z,10.79
2022-11-08T12:19:01.467Z,10.70
2022-11-08T12:21:30.211Z,10.79
2022-11-08T12:24:13.934Z,10.88
2022-11-08T12:26:53.311Z,10.83
2022-11-08T12:29:28.275Z,11.01
2022-11-08T12:31:53.797Z,11.06
2022-11-08T12:34:23.616Z,11.27
2022-11-08T12:37:20.259Z,11.39
2022-11-08T12:39:47.471Z,11.48
2022-11-08T12:42:37.539Z,11.61
2022-11-08T12:45:23.168Z,11.68
2022-11-08T12:48:28.057Z,11.78
2022-11-08T12:51:18.126Z,11.71
2022-11-08T12:53:56.786Z,11.86
2022-11-08T12:56:30.020Z,11.90
2022-11-08T12:58:54.721Z,12.00
2022-11-08T13:01:19.692Z,12.04
2022-11-08T13:03:42.904Z,12.30
2022-11-08T13:06:18.360Z,12.54
2022-11-08T13:09:08.209Z,12.52
2022-11-08T13:11:56.748Z,12.68
2022-11-08T13:14:20.350Z,12.89
2022-11-08T13:16:45.834Z,12.91
2022-11-08T13:19:30.071Z,13.16
2022-11-08T13:21:52.612Z,13.22
2022-11-08T13:24:42.882Z,13.20
2022-11-08T13:27:40.660Z,13.24
2022-11-08T13:30:23.556Z,13.40
2022-11-08T13:33:04.456Z,13.43
2022-11-08T13:35:53.563Z,13.24
2022-11-08T13:38:31.675Z,13.16
2022-11-08T13:41:18.950Z,13.33
2022-11-08T13:43:42.042Z,13.33
2022-11-08T13:46:22.703Z,13.43
2022-11-08T13:49:06.471Z,13.48
2022-11-08T13:51:32.913Z,13.43
2022-11-08T13:53:58.029Z,13.27
2022-11-08T13:56:38.197Z,13.23
2022-11-08T13:59:00.892Z,13.22
2022-11-08T14:01:23.556Z,13.15
2022-11-08T14:03:46.492Z,13.22
2022-11-08T14:06:46.792Z,13.32
2022-11-08T14:09:10.638Z,13.10
2022-11-08T14:11:45.031Z,13.12
2022-11-08T14:14:31.124Z,13.05
2022-11-08T14:17:24.061Z,12.93
2022-11-08T14:19:47.881Z,12.98
2022-11-08T14:22:19.279Z,12.82
2022-11-08T14:24:42.713Z,12.91
2022-11-08T14:27:05.397Z,12.98
2022-11-08T14:29:28.592Z,12.84
2022-11-08T14:32:18.105Z,12.85
2022-11-08T14:34:41.382Z,12.75
2022-11-08T14:37:12.615Z,12.68
2022-11-08T14:39:36.955Z,12.57
2022-11-08T14:42:02.159Z,12.69
2022-11-08T14:44:25.501Z,12.50
2022-11-08T14:46:49.295Z,12.45
2022-11-08T14:49:15.703Z,12.24
2022-11-08T14:51:40.460Z,12.27
2022-11-08T14:54:03.515Z,12.07
2022-11-08T14:56:29.100Z,11.93
2022-11-08T14:58:53.730Z,11.79
2022-11-08T15:01:25.876Z,11.83
2022-11-08T15:04:03.492Z,11.78
2022-11-08T15:06:36.629Z,11.76
2022-11-08T15:09:00.627Z,11.58
2022-11-08T15:11:38.413Z,11.57
2022-11-08T15:14:05.028Z,11.44
2022-11-08T15:16:28.485Z,11.44
2022-11-08T15:18:51.701Z,11.52
2022-11-08T15:21:31.786Z,11.39
2022-11-08T15:24:05.227Z,11.35
2022-11-08T15:26:34.814Z,11.16
2022-11-08T15:29:13.103Z,10.84
2022-11-08T15:31:41.328Z,10.72
2022-11-08T15:34:05.207Z,10.80
2022-11-08T15:36:33.272Z,10.63
2022-11-08T15:38:56.326Z,10.52
2022-11-08T15:41:33.387Z,10.37
2022-11-08T15:44:20.780Z,10.20
2022-11-08T15:46:44.010Z,10.11
2022-11-08T15:49:16.465Z,10.03
2022-11-08T15:51:41.287Z,9.90
2022-11-08T15:54:03.850Z,9.80
2022-11-08T15:56:26.617Z,9.70
2022-11-08T15:58:49.370Z,9.70
2022-11-08T16:01:20.095Z,9.75
2022-11-08T16:03:43.180Z,9.69
2022-11-08T16:06:06.339Z,9.65
2022-11-08T16:08:29.322Z,9.69
2022-11-08T16:10:53.982Z,9.66
2022-11-08T16:13:27.417Z,9.65
2022-11-08T16:15:50.217Z,9.57
2022-11-08T16:18:13.248Z,9.57
2022-11-08T16:20:37.408Z,9.57
2022-11-08T16:23:03.252Z,9.69
2022-11-08T16:25:34.151Z,9.75
2022-11-08T16:28:08.768Z,9.80
2022-11-08T16:30:32.667Z,9.70
2022-11-08T16:32:55.609Z,9.76
2022-11-08T16:35:19.505Z,9.90
2022-11-08T16:37:44.829Z,9.93
2022-11-08T16:40:19.733Z,9.86
2022-11-08T16:42:43.038Z,9.98
2022-11-08T16:45:06.212Z,10.00
2022-11-08T16:47:33.468Z,9.89
2022-11-08T16:49:56.601Z,9.76
2022-11-08T16:52:19.720Z,9.75
2022-11-08T16:54:42.646Z,9.72
2022-11-08T16:57:33.072Z,9.76
2022-11-08T16:59:48.478Z,9.73
2022-11-08T17:02:30.746Z,9.70
2022-11-08T17:04:53.835Z,9.67
2022-11-08T17:07:16.909Z,9.67
2022-11-08T17:09:40.151Z,9.70
2022-11-08T17:12:02.939Z,9.72
2022-11-08T17:14:25.855Z,9.73
2022-11-08T17:16:48.656Z,9.72
2022-11-08T17:19:12.775Z,9.75
2022-11-08T17:21:44.701Z,9.66
2022-11-08T17:24:08.504Z,9.60
2022-11-08T17:26:31.549Z,9.66
2022-11-08T17:28:55.772Z,9.66
2022-11-08T17:31:19.286Z,9.67
2022-11-08T17:33:42.941Z,9.67
2022-11-08T17:36:13.833Z,9.62
2022-11-08T17:38:37.871Z,9.70
2022-11-08T17:41:09.489Z,9.80
2022-11-08T17:43:33.512Z,9.77
2022-11-08T17:45:56.399Z,9.70
2022-11-08T17:48:19.135Z,9.67
2022-11-08T17:50:47.248Z,9.63
2022-11-08T17:53:10.338Z,9.65
2022-11-08T17:55:32.981Z,9.65
2022-11-08T17:57:55.808Z,9.75
2022-11-08T18:00:18.919Z,9.83
2022-11-08T18:02:41.729Z,9.83
2022-11-08T18:05:04.978Z,9.80
2022-11-08T18:07:27.886Z,9.86
2022-11-08T18:09:51.090Z,9.84
2022-11-08T18:12:15.048Z,9.91
2022-11-08T18:14:37.878Z,9.97
2022-11-08T18:17:01.765Z,10.17
2022-11-08T18:19:25.037Z,10.11
2022-11-08T18:21:48.137Z,10.14
2022-11-08T18:24:12.151Z,10.11
2022-11-08T18:26:35.028Z,10.14
2022-11-08T18:28:58.093Z,10.14
2022-11-08T18:31:22.689Z,10.15
2022-11-08T18:33:46.378Z,10.18
2022-11-08T18:36:17.955Z,10.21
2022-11-08T18:38:45.844Z,10.18
2022-11-08T18:41:08.914Z,10.30
2022-11-08T18:43:31.749Z,10.15
2022-11-08T18:45:54.768Z,10.20
2022-11-08T18:48:17.634Z,10.24
2022-11-08T18:50:40.534Z,10.24
2022-11-08T18:53:06.962Z,10.32
2022-11-08T18:55:31.346Z,10.30
2022-11-08T18:57:54.344Z,10.27
2022-11-08T19:00:17.922Z,10.25
2022-11-08T19:02:40.943Z,10.31
2022-11-08T19:05:05.471Z,10.25
2022-11-08T19:07:29.475Z,10.28
2022-11-08T19:09:58.005Z,10.24
2022-11-08T19:12:22.395Z,10.25
2022-11-08T19:14:46.398Z,10.05
2022-11-08T19:17:10.974Z,9.91
2022-11-08T19:19:37.040Z,9.91
2022-11-08T19:22:03.844Z,9.87
2022-11-08T19:24:27.738Z,9.86
2022-11-08T19:26:51.863Z,9.75
2022-11-08T19:29:17.187Z,9.75
2022-11-08T19:31:42.593Z,9.86
2022-11-08T19:34:05.408Z,9.90
2022-11-08T19:36:29.778Z,9.76
2022-11-08T19:38:54.738Z,9.79
2022-11-08T19:41:20.249Z,9.59
2022-11-08T19:43:51.826Z,9.67
2022-11-08T19:46:21.223Z,9.53
2022-11-08T19:48:45.735Z,9.48
2022-11-08T19:51:18.066Z,9.43
2022-11-08T19:53:41.589Z,9.52
2022-11-08T19:56:07.764Z,9.36
2022-11-08T19:58:32.898Z,9.32
2022-11-08T20:00:55.616Z,9.39
2022-11-08T20:03:18.940Z,9.35
2022-11-08T20:05:41.743Z,9.38
2022-11-08T20:08:06.150Z,9.36
2022-11-08T20:10:30.121Z,9.35
2022-11-08T20:12:52.898Z,9.45
2022-11-08T20:15:15.610Z,9.39
2022-11-08T20:17:38.509Z,9.38
2022-11-08T20:20:01.308Z,9.53
2022-11-08T20:22:24.375Z,9.53
2022-11-08T20:24:47.290Z,9.65
2022-11-08T20:27:10.148Z,9.73
2022-11-08T20:29:33.678Z,9.62
2022-11-08T20:31:56.705Z,9.56
2022-11-08T20:34:19.498Z,9.59
2022-11-08T20:36:44.327Z,9.57
2022-11-08T20:39:08.120Z,9.55
2022-11-08T20:41:31.288Z,9.62
2022-11-08T20:43:54.297Z,9.65
2022-11-08T20:46:20.844Z,9.60
2022-11-08T20:48:44.369Z,9.69
2022-11-08T20:51:07.944Z,9.63
2022-11-08T20:53:33.072Z,9.66
2022-11-08T20:56:04.954Z,9.72
2022-11-08T20:58:32.422Z,9.72
2022-11-08T21:00:58.538Z,9.76
2022-11-08T21:03:22.807Z,9.89
2022-11-08T21:06:01.129Z,9.89
2022-11-08T21:11:12.557Z,10.01
2022-11-08T21:13:37.474Z,10.03
2022-11-08T21:16:26.958Z,10.10
2022-11-08T21:18:43.983Z,10.07
2022-11-08T21:21:13.843Z,9.90
2022-11-08T21:23:38.193Z,9.90
2022-11-08T21:26:02.890Z,9.91
2022-11-08T21:28:26.318Z,9.82
2022-11-08T21:30:50.231Z,9.95
2022-11-08T21:33:13.172Z,10.00
2022-11-08T21:35:37.452Z,9.80
2022-11-08T21:38:00.495Z,9.76
2022-11-08T21:40:23.035Z,9.80
2022-11-08T21:42:48.670Z,9.84
2022-11-08T21:45:11.680Z,9.73
2022-11-08T21:47:34.472Z,9.82
2022-11-08T21:49:57.436Z,9.79
2022-11-08T21:52:19.987Z,9.86
2022-11-08T21:54:42.566Z,9.76
2022-11-08T21:57:05.358Z,9.76
2022-11-08T21:59:27.822Z,9.66
2022-11-08T22:01:50.495Z,9.67
2022-11-08T22:04:12.897Z,9.63
2022-11-08T22:06:36.204Z,9.59
2022-11-08T22:08:58.922Z,9.55
2022-11-08T22:11:22.181Z,9.56
2022-11-08T22:13:44.738Z,9.63
2022-11-08T22:16:07.710Z,9.60
2022-11-08T22:18:50.815Z,9.59
2022-11-08T22:21:37.468Z,9.55
2022-11-08T22:23:59.985Z,9.60
2022-11-08T22:26:22.546Z,9.69
2022-11-08T22:28:45.489Z,9.57
2022-11-08T22:31:08.020Z,9.63
2022-11-08T22:33:30.532Z,9.59
2022-11-08T22:35:53.147Z,9.53
2022-11-08T22:38:16.582Z,9.59
2022-11-08T22:40:40.937Z,9.55
2022-11-08T22:43:03.555Z,9.60
2022-11-08T22:45:25.971Z,9.55
2022-11-08T22:47:48.584Z,9.55
2022-11-08T22:50:11.663Z,9.62
2022-11-08T22:52:34.256Z,9.66
2022-11-08T22:54:57.075Z,9.75
2022-11-08T22:57:19.652Z,9.69
2022-11-08T22:59:42.191Z,9.66
2022-11-08T23:02:04.731Z,9.56
2022-11-08T23:04:27.236Z,9.66
2022-11-08T23:06:49.847Z,9.62
2022-11-08T23:09:12.509Z,9.46
2022-11-08T23:11:53.720Z,9.50
2022-11-08T23:14:37.454Z,9.45
2022-11-08T23:17:00.517Z,9.52
2022-11-08T23:19:42.984Z,9.50
2022-11-08T23:22:27.952Z,9.49
2022-11-08T23:24:50.594Z,9.52
2022-11-08T23:27:52.664Z,9.43
2022-11-08T23:30:36.181Z,9.36
2022-11-08T23:32:59.160Z,9.36
2022-11-08T23:35:22.094Z,9.42
2022-11-08T23:37:44.699Z,9.43
2022-11-08T23:40:27.705Z,9.52
2022-11-08T23:43:31.041Z,9.57
2022-11-08T23:45:53.629Z,9.53
2022-11-08T23:48:16.293Z,9.52
2022-11-08T23:50:38.903Z,9.46
2022-11-08T23:53:01.410Z,9.49
2022-11-08T23:55:23.865Z,9.46
2022-11-08T23:57:47.498Z,9.48
